createdAt,value
2018-09-09T00:02:26.186Z,71.37
2018-09-09T00:05:31.131Z,71.37
2018-09-09T00:08:36.054Z,72.51
2018-09-09T00:11:40.997Z,72.05
2018-09-09T00:14:46.141Z,72.31
2018-09-09T00:17:51.086Z,72.56
2018-09-09T00:20:56.042Z,72.25
2018-09-09T00:24:01.002Z,72.05
2018-09-09T00:27:05.975Z,72.07
2018-09-09T00:30:10.938Z,73.01
2018-09-09T00:33:15.881Z,73.46
2018-09-09T00:36:20.839Z,72.33
2018-09-09T00:39:25.782Z,72.32
2018-09-09T00:42:30.725Z,72.82
2018-09-09T00:45:35.662Z,73.14
2018-09-09T00:48:40.602Z,72.37
2018-09-09T00:51:51.350Z,72.99
2018-09-09T00:54:56.276Z,72.40
2018-09-09T00:58:01.193Z,72.88
2018-09-09T01:01:12.026Z,73.50
2018-09-09T01:04:16.953Z,72.88
2018-09-09T01:07:21.876Z,73.61
2018-09-09T01:10:26.813Z,73.07
2018-09-09T01:13:31.732Z,73.31
2018-09-09T01:16:36.678Z,73.37
2018-09-09T01:19:42.021Z,73.27
2018-09-09T01:22:46.940Z,73.61
2018-09-09T01:25:51.893Z,73.57
2018-09-09T01:28:56.816Z,72.73
2018-09-09T01:32:01.729Z,73.82
2018-09-09T01:35:06.698Z,72.75
2018-09-09T01:38:11.608Z,73.58
2018-09-09T01:41:16.537Z,73.48
2018-09-09T01:44:21.468Z,72.55
2018-09-09T01:47:26.405Z,73.73
2018-09-09T01:50:31.352Z,72.96
2018-09-09T01:53:36.276Z,74.10
2018-09-09T01:56:41.227Z,72.95
2018-09-09T01:59:46.185Z,73.42
2018-09-09T02:02:51.095Z,73.46
2018-09-09T02:05:56.034Z,72.89
2018-09-09T02:09:00.972Z,72.86
2018-09-09T02:12:05.914Z,72.75
2018-09-09T02:15:10.890Z,73.14
2018-09-09T02:18:15.822Z,73.23
2018-09-09T02:21:20.786Z,73.72
2018-09-09T02:24:26.000Z,73.04
2018-09-09T02:27:30.941Z,73.18
2018-09-09T02:30:35.885Z,72.90
2018-09-09T02:33:40.849Z,73.96
2018-09-09T02:36:45.829Z,73.29
2018-09-09T02:39:50.828Z,73.75
2018-09-09T02:42:55.761Z,74.19
2018-09-09T02:46:00.709Z,73.39
2018-09-09T02:49:05.625Z,74.03
2018-09-09T02:52:10.559Z,74.26
2018-09-09T02:55:15.477Z,73.76
2018-09-09T02:58:20.381Z,73.41
2018-09-09T03:01:25.341Z,74.33
2018-09-09T03:04:30.333Z,74.75
2018-09-09T03:07:35.264Z,74.19
2018-09-09T03:10:40.220Z,72.87
2018-09-09T03:13:45.689Z,73.95
2018-09-09T03:16:50.648Z,73.46
2018-09-09T03:19:55.627Z,73.27
2018-09-09T03:23:00.590Z,73.86
2018-09-09T03:26:05.542Z,73.83
2018-09-09T03:29:10.517Z,73.71
2018-09-09T03:32:15.446Z,73.89
2018-09-09T03:35:20.445Z,74.93
2018-09-09T03:38:25.381Z,74.96
2018-09-09T03:41:30.334Z,75.09
2018-09-09T03:44:35.289Z,74.59
2018-09-09T03:47:40.226Z,73.62
2018-09-09T03:50:45.134Z,74.13
2018-09-09T03:53:50.037Z,73.61
2018-09-09T03:56:54.973Z,73.89
2018-09-09T03:59:59.909Z,73.75
2018-09-09T04:03:05.269Z,75.24
2018-09-09T04:06:10.208Z,75.95
2018-09-09T04:09:15.141Z,76.67
2018-09-09T04:12:20.054Z,75.06
2018-09-09T04:15:25.001Z,75.32
2018-09-09T04:18:29.944Z,75.15
2018-09-09T04:21:41.353Z,74.23
2018-09-09T04:24:46.293Z,74.70
2018-09-09T04:27:51.217Z,74.11
2018-09-09T04:30:56.246Z,74.46
2018-09-09T04:34:01.107Z,75.58
2018-09-09T04:37:06.062Z,74.77
2018-09-09T04:40:11.047Z,74.11
2018-09-09T04:43:16.001Z,74.36
2018-09-09T04:46:20.969Z,75.47
2018-09-09T04:49:25.893Z,74.69
2018-09-09T04:52:30.833Z,75.18
2018-09-09T04:55:35.783Z,74.84
2018-09-09T04:58:40.742Z,74.44
2018-09-09T05:01:45.700Z,74.64
2018-09-09T05:04:50.650Z,75.08
2018-09-09T05:07:55.589Z,74.92
2018-09-09T05:11:00.505Z,75.20
2018-09-09T05:14:05.641Z,76.52
2018-09-09T05:17:10.602Z,76.37
2018-09-09T05:20:15.535Z,76.39
2018-09-09T05:23:20.479Z,75.53
2018-09-09T05:26:25.417Z,76.34
2018-09-09T05:29:30.406Z,75.31
2018-09-09T05:32:35.374Z,74.99
2018-09-09T05:35:40.320Z,74.92
2018-09-09T05:38:45.439Z,75.77
2018-09-09T05:41:50.373Z,75.91
2018-09-09T05:44:55.281Z,76.03
2018-09-09T05:48:00.211Z,75.03
2018-09-09T05:51:05.942Z,74.98
2018-09-09T05:54:10.885Z,74.88
2018-09-09T05:57:15.825Z,74.51
2018-09-09T06:00:20.771Z,74.69
2018-09-09T06:03:25.708Z,74.60
2018-09-09T06:06:30.661Z,75.16
2018-09-09T06:09:35.601Z,75.33
2018-09-09T06:12:40.595Z,76.88
2018-09-09T06:15:45.503Z,76.10
2018-09-09T06:18:50.437Z,75.53
2018-09-09T06:21:55.365Z,74.81
2018-09-09T06:25:00.300Z,74.44
2018-09-09T06:28:05.234Z,73.99
2018-09-09T06:31:10.141Z,74.13
2018-09-09T06:34:15.086Z,73.39
2018-09-09T06:37:20.029Z,72.40
2018-09-09T06:40:24.957Z,72.66
2018-09-09T06:43:29.885Z,71.81
2018-09-09T06:46:35.097Z,71.59
2018-09-09T06:49:40.043Z,72.12
2018-09-09T06:52:44.976Z,71.19
2018-09-09T06:55:49.901Z,71.30
2018-09-09T06:58:54.829Z,69.16
2018-09-09T07:01:59.741Z,68.71
2018-09-09T07:05:04.734Z,68.39
2018-09-09T07:08:09.697Z,66.24
2018-09-09T07:11:14.723Z,64.12
2018-09-09T07:14:19.583Z,64.20
2018-09-09T07:17:24.662Z,64.70
2018-09-09T07:20:29.625Z,63.09
2018-09-09T07:23:34.557Z,62.67
2018-09-09T07:26:39.491Z,61.25
2018-09-09T07:29:44.511Z,60.24
2018-09-09T07:32:49.490Z,61.22
2018-09-09T07:35:54.487Z,61.41
2018-09-09T07:38:59.433Z,60.87
2018-09-09T07:42:04.392Z,62.21
2018-09-09T07:45:09.327Z,63.24
2018-09-09T07:48:14.306Z,61.43
2018-09-09T07:51:19.245Z,58.04
2018-09-09T07:54:24.306Z,57.63
2018-09-09T07:57:29.249Z,55.48
2018-09-09T08:00:34.432Z,54.17
2018-09-09T08:03:39.310Z,52.68
2018-09-09T08:06:44.335Z,51.87
2018-09-09T08:09:49.280Z,53.06
2018-09-09T08:12:54.215Z,51.55
2018-09-09T08:15:59.172Z,51.88
2018-09-09T08:19:04.513Z,51.34
2018-09-09T08:22:09.463Z,50.07
2018-09-09T08:25:14.457Z,50.72
2018-09-09T08:28:19.495Z,50.02
2018-09-09T08:31:24.653Z,49.12
2018-09-09T08:34:29.611Z,43.53
2018-09-09T08:37:34.545Z,41.10
2018-09-09T08:40:39.501Z,39.92
2018-09-09T08:43:45.305Z,39.52
2018-09-09T08:46:50.283Z,39.76
2018-09-09T08:49:55.269Z,40.44
2018-09-09T08:53:00.203Z,38.01
2018-09-09T08:56:05.329Z,35.15
2018-09-09T08:59:10.286Z,35.28
2018-09-09T09:02:15.267Z,34.49
2018-09-09T09:05:20.262Z,34.66
2018-09-09T09:08:25.185Z,34.53
2018-09-09T09:11:30.160Z,36.19
2018-09-09T09:14:35.137Z,34.99
2018-09-09T09:17:40.039Z,37.56
2018-09-09T09:20:45.071Z,37.89
2018-09-09T09:23:49.938Z,38.42
2018-09-09T09:26:54.875Z,37.70
2018-09-09T09:29:59.900Z,37.70
2018-09-09T09:33:05.090Z,37.30
2018-09-09T09:36:10.022Z,37.85
2018-09-09T09:39:15.123Z,37.20
2018-09-09T09:42:20.040Z,37.43
2018-09-09T09:45:24.954Z,35.50
2018-09-09T09:48:29.922Z,33.52
2018-09-09T09:51:34.859Z,34.58
2018-09-09T09:54:40.049Z,36.39
2018-09-09T09:57:44.981Z,34.77
2018-09-09T10:00:55.579Z,36.39
2018-09-09T10:04:00.692Z,36.10
2018-09-09T10:07:05.633Z,34.78
2018-09-09T10:10:10.541Z,35.48
2018-09-09T10:13:15.573Z,35.79
2018-09-09T10:16:20.497Z,33.28
2018-09-09T10:19:25.491Z,34.07
2018-09-09T10:22:30.385Z,30.40
2018-09-09T10:25:35.305Z,28.77
2018-09-09T10:28:40.236Z,30.46
2018-09-09T10:31:45.193Z,31.70
2018-09-09T10:34:50.189Z,27.65
2018-09-09T10:37:55.112Z,29.80
2018-09-09T10:41:00.073Z,29.97
2018-09-09T10:44:05.002Z,28.45
2018-09-09T10:47:09.986Z,28.28
2018-09-09T10:50:14.865Z,27.62
2018-09-09T10:53:19.812Z,27.41
2018-09-09T10:56:24.785Z,27.06
2018-09-09T10:59:29.708Z,29.85
2018-09-09T11:02:34.666Z,31.18
2018-09-09T11:05:39.915Z,30.52
2018-09-09T11:08:44.856Z,27.65
2018-09-09T11:11:49.820Z,28.54
2018-09-09T11:14:54.769Z,26.66
2018-09-09T11:17:59.693Z,27.09
2018-09-09T11:21:04.756Z,24.73
2018-09-09T11:24:09.769Z,25.30
2018-09-09T11:27:14.697Z,26.93
2018-09-09T11:30:19.641Z,26.21
2018-09-09T11:33:24.613Z,28.55
2018-09-09T11:36:29.591Z,25.18
2018-09-09T11:39:34.541Z,25.54
2018-09-09T11:42:39.521Z,23.27
2018-09-09T11:45:44.458Z,25.52
2018-09-09T11:48:49.440Z,26.80
2018-09-09T11:51:54.401Z,25.98
2018-09-09T11:54:59.338Z,27.86
2018-09-09T11:58:04.465Z,27.17
2018-09-09T12:01:09.410Z,26.79
2018-09-09T12:04:14.342Z,24.86
2018-09-09T12:07:19.439Z,26.05
2018-09-09T12:10:24.387Z,27.23
2018-09-09T12:13:29.343Z,27.57
2018-09-09T12:16:34.305Z,27.57
2018-09-09T12:19:39.257Z,28.93
2018-09-09T12:22:44.321Z,27.43
2018-09-09T12:25:49.259Z,27.01
2018-09-09T12:28:54.403Z,26.96
2018-09-09T12:31:59.409Z,28.10
2018-09-09T12:35:04.583Z,27.23
2018-09-09T12:38:09.537Z,27.92
2018-09-09T12:41:14.505Z,27.46
2018-09-09T12:44:25.417Z,28.81
2018-09-09T12:47:36.012Z,29.77
2018-09-09T12:50:40.974Z,30.39
2018-09-09T12:53:45.934Z,30.35
2018-09-09T12:56:50.939Z,31.49
2018-09-09T12:59:55.957Z,31.63
2018-09-09T13:03:00.902Z,30.21
2018-09-09T13:06:05.881Z,30.34
2018-09-09T13:09:10.832Z,29.87
2018-09-09T13:12:15.773Z,29.46
2018-09-09T13:15:20.713Z,30.15
2018-09-09T13:18:25.676Z,30.09
2018-09-09T13:21:30.739Z,30.81
2018-09-09T13:24:35.664Z,28.65
2018-09-09T13:27:40.641Z,28.86
2018-09-09T13:30:45.586Z,28.76
2018-09-09T13:33:50.542Z,31.48
2018-09-09T13:36:55.593Z,31.27
2018-09-09T13:40:00.549Z,29.94
2018-09-09T13:43:05.585Z,28.82
2018-09-09T13:46:10.645Z,28.45
2018-09-09T13:49:15.613Z,29.40
2018-09-09T13:52:20.852Z,28.58
2018-09-09T13:55:25.835Z,29.22
2018-09-09T13:58:30.765Z,28.15
2018-09-09T14:01:35.674Z,29.59
2018-09-09T14:04:40.619Z,27.95
2018-09-09T14:07:45.537Z,26.75
2018-09-09T14:10:50.503Z,28.40
2018-09-09T14:13:55.482Z,27.41
2018-09-09T14:17:00.405Z,27.77
2018-09-09T14:20:05.345Z,28.08
2018-09-09T14:23:10.285Z,27.39
2018-09-09T14:26:15.193Z,28.28
2018-09-09T14:29:20.196Z,27.55
2018-09-09T14:32:25.105Z,27.91
2018-09-09T14:35:30.025Z,28.72
2018-09-09T14:38:34.978Z,27.15
2018-09-09T14:41:39.933Z,28.20
2018-09-09T14:44:44.860Z,25.15
2018-09-09T14:47:49.816Z,27.07
2018-09-09T14:50:54.749Z,26.94
2018-09-09T14:53:59.685Z,27.82
2018-09-09T14:57:04.674Z,26.93
2018-09-09T15:00:12.265Z,27.06
2018-09-09T15:03:17.213Z,27.60
2018-09-09T15:06:22.205Z,27.49
2018-09-09T15:09:27.189Z,27.58
2018-09-09T15:12:32.223Z,25.88
2018-09-09T15:15:37.208Z,27.21
2018-09-09T15:18:42.177Z,27.07
2018-09-09T15:21:47.113Z,27.16
2018-09-09T15:24:52.083Z,27.44
2018-09-09T15:27:57.071Z,27.95
2018-09-09T15:31:02.044Z,28.55
2018-09-09T15:34:07.018Z,29.88
2018-09-09T15:37:11.976Z,28.44
2018-09-09T15:40:16.941Z,28.20
2018-09-09T15:43:21.976Z,28.17
2018-09-09T15:46:26.986Z,29.12
2018-09-09T15:49:31.967Z,29.65
2018-09-09T15:52:37.039Z,29.68
2018-09-09T15:55:42.011Z,29.32
2018-09-09T15:58:47.709Z,29.74
2018-09-09T16:01:52.679Z,30.13
2018-09-09T16:04:57.654Z,29.54
2018-09-09T16:08:02.625Z,31.02
2018-09-09T16:11:07.643Z,30.64
2018-09-09T16:14:12.618Z,31.16
2018-09-09T16:17:17.561Z,31.50
2018-09-09T16:20:22.529Z,30.69
2018-09-09T16:23:27.543Z,30.81
2018-09-09T16:26:32.462Z,31.28
2018-09-09T16:29:37.413Z,31.28
2018-09-09T16:32:42.382Z,32.45
2018-09-09T16:35:47.399Z,31.48
2018-09-09T16:38:52.438Z,31.82
2018-09-09T16:41:58.109Z,32.83
2018-09-09T16:45:03.194Z,33.14
2018-09-09T16:48:08.198Z,33.34
2018-09-09T16:51:14.085Z,33.43
2018-09-09T16:54:19.082Z,33.44
2018-09-09T16:57:24.063Z,33.36
2018-09-09T17:00:29.015Z,33.31
2018-09-09T17:03:33.990Z,35.53
2018-09-09T17:06:39.017Z,34.93
2018-09-09T17:09:44.009Z,37.82
2018-09-09T17:12:49.046Z,37.67
2018-09-09T17:15:54.043Z,38.69
2018-09-09T17:18:58.998Z,39.32
2018-09-09T17:22:04.007Z,40.70
2018-09-09T17:25:09.000Z,41.92
2018-09-09T17:28:13.951Z,41.69
2018-09-09T17:31:18.966Z,42.19
2018-09-09T17:34:23.962Z,41.72
2018-09-09T17:37:28.915Z,42.87
2018-09-09T17:40:33.923Z,43.75
2018-09-09T17:43:39.131Z,44.64
2018-09-09T17:46:44.132Z,44.27
2018-09-09T17:49:49.173Z,45.15
2018-09-09T17:52:54.398Z,44.85
2018-09-09T17:55:59.591Z,44.95
2018-09-09T17:59:04.585Z,45.50
2018-09-09T18:02:09.580Z,46.73
2018-09-09T18:05:14.533Z,46.07
2018-09-09T18:08:19.562Z,46.70
2018-09-09T18:11:24.583Z,46.88
2018-09-09T18:14:29.553Z,47.14
2018-09-09T18:17:34.620Z,47.72
2018-09-09T18:20:39.499Z,48.15
2018-09-09T18:23:44.428Z,48.37
2018-09-09T18:26:49.385Z,49.70
2018-09-09T18:29:54.624Z,50.29
2018-09-09T18:32:59.710Z,49.94
2018-09-09T18:36:04.793Z,50.51
2018-09-09T18:39:10.470Z,51.77
2018-09-09T18:42:15.284Z,51.83
2018-09-09T18:45:20.501Z,51.85
2018-09-09T18:48:25.498Z,51.89
2018-09-09T18:51:30.495Z,51.97
2018-09-09T18:54:35.421Z,52.67
2018-09-09T18:57:40.969Z,52.74
2018-09-09T19:00:46.009Z,53.41
2018-09-09T19:03:50.962Z,53.11
2018-09-09T19:06:55.966Z,53.95
2018-09-09T19:10:01.026Z,53.46
2018-09-09T19:13:06.214Z,54.46
2018-09-09T19:16:11.710Z,54.55
2018-09-09T19:19:16.794Z,55.28
2018-09-09T19:22:21.821Z,55.52
2018-09-09T19:25:26.954Z,54.64
2018-09-09T19:28:32.002Z,54.90
2018-09-09T19:31:37.449Z,55.13
2018-09-09T19:34:42.857Z,56.17
2018-09-09T19:37:47.833Z,56.31
2018-09-09T19:40:53.236Z,56.58
2018-09-09T19:43:58.233Z,56.91
2018-09-09T19:47:04.249Z,57.11
2018-09-09T19:50:09.211Z,56.85
2018-09-09T19:53:14.192Z,58.44
2018-09-09T19:56:19.140Z,57.84
2018-09-09T19:59:24.091Z,57.66
2018-09-09T20:02:29.174Z,58.50
2018-09-09T20:05:34.086Z,59.19
2018-09-09T20:08:39.060Z,59.96
2018-09-09T20:11:44.014Z,60.16
2018-09-09T20:14:48.955Z,60.22
2018-09-09T20:17:53.882Z,60.08
2018-09-09T20:20:58.809Z,59.24
2018-09-09T20:24:03.771Z,60.08
2018-09-09T20:27:08.714Z,61.24
2018-09-09T20:30:13.628Z,60.91
2018-09-09T20:33:18.561Z,61.05
2018-09-09T20:36:23.485Z,61.34
2018-09-09T20:39:28.437Z,61.28
2018-09-09T20:42:33.376Z,61.29
2018-09-09T20:45:38.317Z,61.55
2018-09-09T20:48:43.245Z,61.84
2018-09-09T20:51:48.161Z,61.82
2018-09-09T20:54:53.093Z,61.62
2018-09-09T20:57:58.017Z,61.63
2018-09-09T21:01:02.957Z,62.19
2018-09-09T21:04:07.862Z,62.43
2018-09-09T21:07:12.789Z,62.84
2018-09-09T21:10:17.772Z,62.73
2018-09-09T21:13:22.741Z,62.98
2018-09-09T21:16:27.692Z,63.33
2018-09-09T21:19:32.609Z,62.91
2018-09-09T21:22:37.541Z,63.16
2018-09-09T21:25:42.463Z,63.92
2018-09-09T21:28:47.401Z,64.30
2018-09-09T21:31:52.330Z,64.62
2018-09-09T21:34:57.301Z,64.95
2018-09-09T21:38:02.241Z,64.68
2018-09-09T21:41:07.157Z,64.38
2018-09-09T21:44:12.101Z,64.54
2018-09-09T21:47:17.010Z,64.87
2018-09-09T21:50:21.965Z,65.12
2018-09-09T21:53:26.912Z,65.17
2018-09-09T21:56:31.841Z,66.08
2018-09-09T22:03:17.629Z,65.48
2018-09-09T22:06:22.554Z,65.83
2018-09-09T22:09:27.507Z,65.12
2018-09-09T22:12:32.430Z,65.74
2018-09-09T22:15:37.401Z,67.59
2018-09-09T22:18:42.366Z,67.46
2018-09-09T22:21:48.557Z,67.42
2018-09-09T22:24:53.488Z,67.30
2018-09-09T22:27:58.389Z,68.08
2018-09-09T22:31:03.419Z,67.48
2018-09-09T22:34:08.353Z,67.04
2018-09-09T22:37:13.252Z,67.42
2018-09-09T22:40:18.205Z,67.10
2018-09-09T22:43:23.149Z,67.90
2018-09-09T22:46:28.103Z,67.45
2018-09-09T22:49:33.039Z,67.11
2018-09-09T22:52:37.984Z,68.14
2018-09-09T22:55:42.944Z,68.57
2018-09-09T22:58:47.882Z,68.09
2018-09-09T23:01:52.828Z,67.54
2018-09-09T23:04:57.756Z,68.26
2018-09-09T23:08:02.685Z,67.51
2018-09-09T23:11:07.636Z,68.74
2018-09-09T23:14:12.561Z,68.98
2018-09-09T23:17:17.589Z,68.38
2018-09-09T23:20:22.735Z,69.25
2018-09-09T23:23:27.660Z,68.51
2018-09-09T23:26:32.565Z,69.40
2018-09-09T23:29:37.475Z,68.54
2018-09-09T23:32:42.426Z,68.99
2018-09-09T23:35:47.355Z,68.86
2018-09-09T23:38:52.285Z,68.64
2018-09-09T23:41:57.233Z,69.21
2018-09-09T23:45:02.181Z,69.93
2018-09-09T23:48:07.324Z,69.51
2018-09-09T23:51:12.273Z,69.58
2018-09-09T23:54:17.218Z,69.41
2018-09-09T23:57:22.161Z,69.64
